Terminal Aerodrome Forecast
Issued by NWS

Home | Current Version | Previous Version | Text Only | Print | Product List | Glossary On
Versions: 1 2 3 4 5 6 7 8 9 10 11 12 13 14 15 16 17 18 19 20 21 22 23 24 25 26 27 28 29 30 31
000
FTUS45 KGJT 271140
TAFRIL
TAF
KRIL 271140Z 2712/2812 00000KT P6SM VCSH SCT050 BKN080 BKN120
     FM271900 30006KT P6SM VCTS BKN100CB
     FM280000 29009KT P6SM VCSH BKN120
     FM280200 12006KT P6SM BKN110
     FM280500 VRB03KT P6SM SCT100=

USA.gov is the U.S. government's official web portal to all federal, state and local government web resources and services.